sensor_id;sensor_type;location;lat;lon;timestamp;P1;durP1;ratioP1;P2;durP2;ratioP2
14736;SDS011;7459;53.590;10.062;2023-07-24T00:01:56;4.60;;;2.00;;
14736;SDS011;7459;53.590;10.062;2023-07-24T00:04:22;5.25;;;2.22;;
14736;SDS011;7459;53.590;10.062;2023-07-24T00:06:48;4.77;;;1.97;;
14736;SDS011;7459;53.590;10.062;2023-07-24T00:09:14;6.28;;;2.50;;
14736;SDS011;7459;53.590;10.062;2023-07-24T00:11:40;5.35;;;2.10;;
14736;SDS011;7459;53.590;10.062;2023-07-24T00:14:06;4.93;;;1.80;;
14736;SDS011;7459;53.590;10.062;2023-07-24T00:16:31;4.85;;;1.85;;
14736;SDS011;7459;53.590;10.062;2023-07-24T00:18:57;5.60;;;1.83;;
14736;SDS011;7459;53.590;10.062;2023-07-24T00:21:23;5.43;;;1.92;;
14736;SDS011;7459;53.590;10.062;2023-07-24T00:23:48;4.47;;;2.03;;
14736;SDS011;7459;53.590;10.062;2023-07-24T00:26:14;5.40;;;1.75;;
14736;SDS011;7459;53.590;10.062;2023-07-24T00:28:40;4.17;;;1.43;;
14736;SDS011;7459;53.590;10.062;2023-07-24T00:31:05;3.55;;;1.23;;
14736;SDS011;7459;53.590;10.062;2023-07-24T00:33:31;4.97;;;1.60;;
14736;SDS011;7459;53.590;10.062;2023-07-24T00:35:57;5.18;;;1.50;;
14736;SDS011;7459;53.590;10.062;2023-07-24T00:38:23;5.50;;;1.90;;
14736;SDS011;7459;53.590;10.062;2023-07-24T00:40:49;5.57;;;1.75;;
14736;SDS011;7459;53.590;10.062;2023-07-24T00:43:15;4.97;;;1.90;;
14736;SDS011;7459;53.590;10.062;2023-07-24T00:45:41;5.30;;;1.97;;
14736;SDS011;7459;53.590;10.062;2023-07-24T00:48:07;6.28;;;2.10;;
14736;SDS011;7459;53.590;10.062;2023-07-24T00:50:33;5.78;;;1.85;;
14736;SDS011;7459;53.590;10.062;2023-07-24T00:53:01;6.00;;;2.00;;
14736;SDS011;7459;53.590;10.062;2023-07-24T00:55:27;5.73;;;2.13;;
14736;SDS011;7459;53.590;10.062;2023-07-24T00:57:53;4.95;;;1.90;;
14736;SDS011;7459;53.590;10.062;2023-07-24T01:00:19;4.82;;;1.83;;
14736;SDS011;7459;53.590;10.062;2023-07-24T01:02:45;5.40;;;2.57;;
14736;SDS011;7459;53.590;10.062;2023-07-24T01:05:12;5.43;;;2.58;;
14736;SDS011;7459;53.590;10.062;2023-07-24T01:07:40;6.18;;;2.13;;
14736;SDS011;7459;53.590;10.062;2023-07-24T01:10:05;6.07;;;2.53;;
14736;SDS011;7459;53.590;10.062;2023-07-24T01:15:38;5.30;;;2.30;;
14736;SDS011;7459;53.590;10.062;2023-07-24T01:18:11;5.50;;;2.47;;
14736;SDS011;7459;53.590;10.062;2023-07-24T01:20:43;6.55;;;2.80;;
14736;SDS011;7459;53.590;10.062;2023-07-24T01:25:59;5.43;;;2.45;;
14736;SDS011;7459;53.590;10.062;2023-07-24T01:28:27;5.82;;;2.75;;
14736;SDS011;7459;53.590;10.062;2023-07-24T01:30:53;5.10;;;2.22;;
14736;SDS011;7459;53.590;10.062;2023-07-24T01:33:20;6.20;;;2.45;;
14736;SDS011;7459;53.590;10.062;2023-07-24T01:35:48;5.43;;;2.40;;
14736;SDS011;7459;53.590;10.062;2023-07-24T01:38:19;5.95;;;2.40;;
14736;SDS011;7459;53.590;10.062;2023-07-24T01:40:46;6.32;;;2.63;;
14736;SDS011;7459;53.590;10.062;2023-07-24T01:43:12;5.38;;;2.30;;
14736;SDS011;7459;53.590;10.062;2023-07-24T01:45:39;5.30;;;2.38;;
14736;SDS011;7459;53.590;10.062;2023-07-24T01:48:05;5.27;;;2.70;;
14736;SDS011;7459;53.590;10.062;2023-07-24T01:50:31;7.97;;;2.20;;
14736;SDS011;7459;53.590;10.062;2023-07-24T01:52:57;7.28;;;2.55;;
14736;SDS011;7459;53.590;10.062;2023-07-24T01:55:23;6.53;;;2.23;;
14736;SDS011;7459;53.590;10.062;2023-07-24T01:57:49;5.38;;;2.30;;
14736;SDS011;7459;53.590;10.062;2023-07-24T02:00:14;5.13;;;2.10;;
14736;SDS011;7459;53.590;10.062;2023-07-24T02:05:16;6.78;;;2.83;;
14736;SDS011;7459;53.590;10.062;2023-07-24T02:07:41;5.72;;;1.95;;
14736;SDS011;7459;53.590;10.062;2023-07-24T02:10:07;5.63;;;2.63;;
14736;SDS011;7459;53.590;10.062;2023-07-24T02:12:33;5.70;;;2.40;;
14736;SDS011;7459;53.590;10.062;2023-07-24T02:14:59;6.13;;;3.10;;
14736;SDS011;7459;53.590;10.062;2023-07-24T02:17:25;6.15;;;2.70;;
14736;SDS011;7459;53.590;10.062;2023-07-24T02:19:51;5.60;;;2.60;;
14736;SDS011;7459;53.590;10.062;2023-07-24T02:22:16;6.88;;;2.80;;
14736;SDS011;7459;53.590;10.062;2023-07-24T02:24:42;6.23;;;2.90;;
14736;SDS011;7459;53.590;10.062;2023-07-24T02:27:11;6.82;;;2.50;;
14736;SDS011;7459;53.590;10.062;2023-07-24T02:29:38;7.70;;;2.60;;
14736;SDS011;7459;53.590;10.062;2023-07-24T02:32:04;5.90;;;2.63;;
14736;SDS011;7459;53.590;10.062;2023-07-24T02:34:30;8.65;;;3.05;;
14736;SDS011;7459;53.590;10.062;2023-07-24T02:36:55;7.27;;;3.03;;
14736;SDS011;7459;53.590;10.062;2023-07-24T02:39:21;6.07;;;2.92;;
14736;SDS011;7459;53.590;10.062;2023-07-24T02:41:49;6.90;;;3.13;;
14736;SDS011;7459;53.590;10.062;2023-07-24T02:44:15;7.43;;;3.10;;
14736;SDS011;7459;53.590;10.062;2023-07-24T02:46:41;7.38;;;2.92;;
14736;SDS011;7459;53.590;10.062;2023-07-24T02:49:07;7.40;;;3.27;;
14736;SDS011;7459;53.590;10.062;2023-07-24T02:51:33;6.05;;;2.90;;
14736;SDS011;7459;53.590;10.062;2023-07-24T02:53:58;6.53;;;3.30;;
14736;SDS011;7459;53.590;10.062;2023-07-24T02:56:24;5.63;;;2.90;;
14736;SDS011;7459;53.590;10.062;2023-07-24T02:58:50;6.63;;;3.10;;
14736;SDS011;7459;53.590;10.062;2023-07-24T03:01:16;7.43;;;3.37;;
14736;SDS011;7459;53.590;10.062;2023-07-24T03:03:41;7.13;;;3.20;;
14736;SDS011;7459;53.590;10.062;2023-07-24T03:06:07;6.53;;;2.97;;
14736;SDS011;7459;53.590;10.062;2023-07-24T03:08:33;6.57;;;3.00;;
14736;SDS011;7459;53.590;10.062;2023-07-24T03:10:59;10.47;;;3.93;;
14736;SDS011;7459;53.590;10.062;2023-07-24T03:13:27;6.18;;;3.15;;
14736;SDS011;7459;53.590;10.062;2023-07-24T03:15:56;6.97;;;3.20;;
14736;SDS011;7459;53.590;10.062;2023-07-24T03:18:23;7.45;;;3.03;;
14736;SDS011;7459;53.590;10.062;2023-07-24T03:20:49;5.80;;;2.60;;
14736;SDS011;7459;53.590;10.062;2023-07-24T03:23:15;6.13;;;2.80;;
14736;SDS011;7459;53.590;10.062;2023-07-24T03:25:40;7.50;;;2.90;;
14736;SDS011;7459;53.590;10.062;2023-07-24T03:28:06;5.80;;;2.87;;
14736;SDS011;7459;53.590;10.062;2023-07-24T03:30:32;6.40;;;2.67;;
14736;SDS011;7459;53.590;10.062;2023-07-24T03:32:58;7.53;;;2.80;;
14736;SDS011;7459;53.590;10.062;2023-07-24T03:35:24;6.00;;;2.85;;
14736;SDS011;7459;53.590;10.062;2023-07-24T03:37:49;6.70;;;2.63;;
14736;SDS011;7459;53.590;10.062;2023-07-24T03:40:15;5.60;;;2.53;;
14736;SDS011;7459;53.590;10.062;2023-07-24T03:42:41;6.95;;;3.20;;
14736;SDS011;7459;53.590;10.062;2023-07-24T03:45:07;6.17;;;3.07;;
14736;SDS011;7459;53.590;10.062;2023-07-24T03:47:33;6.25;;;3.03;;
14736;SDS011;7459;53.590;10.062;2023-07-24T03:49:59;7.55;;;3.08;;
14736;SDS011;7459;53.590;10.062;2023-07-24T03:52:25;10.80;;;3.67;;
14736;SDS011;7459;53.590;10.062;2023-07-24T03:54:51;6.43;;;3.30;;
14736;SDS011;7459;53.590;10.062;2023-07-24T03:57:17;6.10;;;3.05;;
14736;SDS011;7459;53.590;10.062;2023-07-24T03:59:43;8.82;;;3.38;;
14736;SDS011;7459;53.590;10.062;2023-07-24T04:02:09;7.03;;;3.00;;
14736;SDS011;7459;53.590;10.062;2023-07-24T04:04:35;5.90;;;2.78;;
14736;SDS011;7459;53.590;10.062;2023-07-24T04:07:01;7.50;;;2.95;;
14736;SDS011;7459;53.590;10.062;2023-07-24T04:09:28;7.50;;;3.28;;
14736;SDS011;7459;53.590;10.062;2023-07-24T04:11:53;6.83;;;3.37;;
14736;SDS011;7459;53.590;10.062;2023-07-24T04:14:19;7.05;;;3.20;;
14736;SDS011;7459;53.590;10.062;2023-07-24T04:16:45;7.63;;;3.63;;
14736;SDS011;7459;53.590;10.062;2023-07-24T04:19:11;6.35;;;3.05;;
14736;SDS011;7459;53.590;10.062;2023-07-24T04:21:36;8.07;;;3.13;;
14736;SDS011;7459;53.590;10.062;2023-07-24T04:24:02;6.97;;;2.83;;
14736;SDS011;7459;53.590;10.062;2023-07-24T04:26:28;8.15;;;2.97;;
14736;SDS011;7459;53.590;10.062;2023-07-24T04:28:54;6.90;;;3.13;;
14736;SDS011;7459;53.590;10.062;2023-07-24T04:31:19;8.48;;;3.00;;
14736;SDS011;7459;53.590;10.062;2023-07-24T04:33:45;9.60;;;3.50;;
14736;SDS011;7459;53.590;10.062;2023-07-24T04:36:11;7.97;;;3.40;;
14736;SDS011;7459;53.590;10.062;2023-07-24T04:38:36;9.63;;;3.60;;
14736;SDS011;7459;53.590;10.062;2023-07-24T04:41:02;8.68;;;3.67;;
14736;SDS011;7459;53.590;10.062;2023-07-24T04:43:31;8.73;;;3.57;;
14736;SDS011;7459;53.590;10.062;2023-07-24T04:45:56;6.20;;;2.80;;
14736;SDS011;7459;53.590;10.062;2023-07-24T04:48:22;9.27;;;3.88;;
14736;SDS011;7459;53.590;10.062;2023-07-24T04:50:54;8.70;;;3.57;;
14736;SDS011;7459;53.590;10.062;2023-07-24T04:53:21;8.05;;;3.30;;
14736;SDS011;7459;53.590;10.062;2023-07-24T04:55:47;6.93;;;3.22;;
14736;SDS011;7459;53.590;10.062;2023-07-24T04:58:13;8.52;;;3.65;;
14736;SDS011;7459;53.590;10.062;2023-07-24T05:00:39;10.27;;;3.47;;
14736;SDS011;7459;53.590;10.062;2023-07-24T05:03:04;10.77;;;3.30;;
14736;SDS011;7459;53.590;10.062;2023-07-24T05:05:31;7.10;;;3.10;;
14736;SDS011;7459;53.590;10.062;2023-07-24T05:07:57;6.13;;;2.63;;
14736;SDS011;7459;53.590;10.062;2023-07-24T05:10:23;7.15;;;3.10;;
14736;SDS011;7459;53.590;10.062;2023-07-24T05:12:48;10.47;;;3.20;;
14736;SDS011;7459;53.590;10.062;2023-07-24T05:15:14;6.40;;;2.92;;
14736;SDS011;7459;53.590;10.062;2023-07-24T05:17:42;6.25;;;2.78;;
14736;SDS011;7459;53.590;10.062;2023-07-24T05:20:08;8.65;;;3.10;;
14736;SDS011;7459;53.590;10.062;2023-07-24T05:22:35;7.13;;;3.60;;
14736;SDS011;7459;53.590;10.062;2023-07-24T05:25:00;7.20;;;3.33;;
14736;SDS011;7459;53.590;10.062;2023-07-24T05:27:26;6.63;;;2.97;;
14736;SDS011;7459;53.590;10.062;2023-07-24T05:29:52;7.18;;;3.17;;
14736;SDS011;7459;53.590;10.062;2023-07-24T05:32:17;6.87;;;2.97;;
14736;SDS011;7459;53.590;10.062;2023-07-24T05:34:43;5.65;;;2.60;;
14736;SDS011;7459;53.590;10.062;2023-07-24T05:37:09;6.50;;;2.60;;
14736;SDS011;7459;53.590;10.062;2023-07-24T05:39:34;6.45;;;2.80;;
14736;SDS011;7459;53.590;10.062;2023-07-24T05:42:00;7.50;;;3.10;;
14736;SDS011;7459;53.590;10.062;2023-07-24T05:44:26;6.28;;;3.00;;
14736;SDS011;7459;53.590;10.062;2023-07-24T05:46:51;7.50;;;2.67;;
14736;SDS011;7459;53.590;10.062;2023-07-24T05:49:17;7.75;;;2.80;;
14736;SDS011;7459;53.590;10.062;2023-07-24T05:51:43;6.77;;;2.80;;
14736;SDS011;7459;53.590;10.062;2023-07-24T05:54:08;6.25;;;3.08;;
14736;SDS011;7459;53.590;10.062;2023-07-24T05:56:34;6.63;;;3.13;;
14736;SDS011;7459;53.590;10.062;2023-07-24T05:59:00;7.53;;;3.53;;
14736;SDS011;7459;53.590;10.062;2023-07-24T06:01:25;7.17;;;3.80;;
14736;SDS011;7459;53.590;10.062;2023-07-24T06:03:51;8.63;;;3.40;;
14736;SDS011;7459;53.590;10.062;2023-07-24T06:06:17;8.57;;;3.80;;
14736;SDS011;7459;53.590;10.062;2023-07-24T06:08:43;6.45;;;3.10;;
14736;SDS011;7459;53.590;10.062;2023-07-24T06:11:08;7.65;;;3.40;;
14736;SDS011;7459;53.590;10.062;2023-07-24T06:13:35;6.70;;;3.37;;
14736;SDS011;7459;53.590;10.062;2023-07-24T06:16:01;7.15;;;3.38;;
14736;SDS011;7459;53.590;10.062;2023-07-24T06:18:26;7.47;;;3.77;;
14736;SDS011;7459;53.590;10.062;2023-07-24T06:20:52;7.93;;;3.38;;
14736;SDS011;7459;53.590;10.062;2023-07-24T06:23:19;6.95;;;3.50;;
14736;SDS011;7459;53.590;10.062;2023-07-24T06:25:44;7.70;;;3.17;;
14736;SDS011;7459;53.590;10.062;2023-07-24T06:28:10;7.82;;;3.28;;
14736;SDS011;7459;53.590;10.062;2023-07-24T06:30:37;7.75;;;3.30;;
14736;SDS011;7459;53.590;10.062;2023-07-24T06:33:04;9.13;;;3.40;;
14736;SDS011;7459;53.590;10.062;2023-07-24T06:35:30;7.13;;;3.03;;
14736;SDS011;7459;53.590;10.062;2023-07-24T06:37:56;7.85;;;3.70;;
14736;SDS011;7459;53.590;10.062;2023-07-24T06:40:21;7.53;;;3.20;;
14736;SDS011;7459;53.590;10.062;2023-07-24T06:42:47;8.37;;;3.70;;
14736;SDS011;7459;53.590;10.062;2023-07-24T06:45:13;6.50;;;2.72;;
14736;SDS011;7459;53.590;10.062;2023-07-24T06:47:38;6.73;;;3.43;;
14736;SDS011;7459;53.590;10.062;2023-07-24T06:50:04;7.23;;;2.97;;
14736;SDS011;7459;53.590;10.062;2023-07-24T06:52:31;9.43;;;3.17;;
14736;SDS011;7459;53.590;10.062;2023-07-24T06:54:58;7.38;;;3.25;;
14736;SDS011;7459;53.590;10.062;2023-07-24T06:57:24;6.35;;;3.17;;
14736;SDS011;7459;53.590;10.062;2023-07-24T06:59:50;7.75;;;3.65;;
14736;SDS011;7459;53.590;10.062;2023-07-24T07:02:15;6.67;;;3.53;;
14736;SDS011;7459;53.590;10.062;2023-07-24T07:04:41;7.93;;;3.65;;
14736;SDS011;7459;53.590;10.062;2023-07-24T07:07:07;6.93;;;3.43;;
14736;SDS011;7459;53.590;10.062;2023-07-24T07:09:32;10.75;;;3.83;;
14736;SDS011;7459;53.590;10.062;2023-07-24T07:11:58;7.93;;;3.67;;
14736;SDS011;7459;53.590;10.062;2023-07-24T07:14:24;6.70;;;4.05;;
14736;SDS011;7459;53.590;10.062;2023-07-24T07:16:49;8.47;;;4.07;;
14736;SDS011;7459;53.590;10.062;2023-07-24T07:19:15;7.40;;;3.85;;
14736;SDS011;7459;53.590;10.062;2023-07-24T07:21:41;8.17;;;4.07;;
14736;SDS011;7459;53.590;10.062;2023-07-24T07:24:06;7.43;;;4.28;;
14736;SDS011;7459;53.590;10.062;2023-07-24T07:26:32;7.37;;;3.97;;
14736;SDS011;7459;53.590;10.062;2023-07-24T07:28:58;9.02;;;4.28;;
14736;SDS011;7459;53.590;10.062;2023-07-24T07:31:24;6.97;;;3.70;;
14736;SDS011;7459;53.590;10.062;2023-07-24T07:33:50;6.87;;;3.67;;
14736;SDS011;7459;53.590;10.062;2023-07-24T07:36:16;8.57;;;4.30;;
14736;SDS011;7459;53.590;10.062;2023-07-24T07:38:42;7.88;;;4.30;;
14736;SDS011;7459;53.590;10.062;2023-07-24T07:41:08;7.37;;;4.30;;
14736;SDS011;7459;53.590;10.062;2023-07-24T07:43:34;8.23;;;4.43;;
14736;SDS011;7459;53.590;10.062;2023-07-24T07:46:01;6.68;;;3.95;;
14736;SDS011;7459;53.590;10.062;2023-07-24T07:48:27;7.28;;;4.10;;
14736;SDS011;7459;53.590;10.062;2023-07-24T07:50:53;9.33;;;3.90;;
14736;SDS011;7459;53.590;10.062;2023-07-24T07:53:19;8.18;;;4.20;;
14736;SDS011;7459;53.590;10.062;2023-07-24T07:55:45;7.32;;;3.67;;
14736;SDS011;7459;53.590;10.062;2023-07-24T07:58:11;7.07;;;3.77;;
14736;SDS011;7459;53.590;10.062;2023-07-24T08:00:36;6.55;;;3.70;;
14736;SDS011;7459;53.590;10.062;2023-07-24T08:03:05;7.38;;;4.07;;
14736;SDS011;7459;53.590;10.062;2023-07-24T08:05:31;6.60;;;3.33;;
14736;SDS011;7459;53.590;10.062;2023-07-24T08:07:57;7.63;;;3.80;;
14736;SDS011;7459;53.590;10.062;2023-07-24T08:10:23;8.20;;;3.57;;
14736;SDS011;7459;53.590;10.062;2023-07-24T08:12:49;7.78;;;3.78;;
14736;SDS011;7459;53.590;10.062;2023-07-24T08:15:14;7.82;;;3.95;;
14736;SDS011;7459;53.590;10.062;2023-07-24T08:17:40;9.47;;;4.10;;
14736;SDS011;7459;53.590;10.062;2023-07-24T08:20:06;9.02;;;4.75;;
14736;SDS011;7459;53.590;10.062;2023-07-24T08:22:32;7.90;;;4.37;;
14736;SDS011;7459;53.590;10.062;2023-07-24T08:24:58;7.63;;;4.22;;
14736;SDS011;7459;53.590;10.062;2023-07-24T08:27:24;7.85;;;3.88;;
14736;SDS011;7459;53.590;10.062;2023-07-24T08:29:52;7.53;;;3.83;;
14736;SDS011;7459;53.590;10.062;2023-07-24T08:32:18;7.20;;;4.07;;
14736;SDS011;7459;53.590;10.062;2023-07-24T08:34:44;7.72;;;4.07;;
14736;SDS011;7459;53.590;10.062;2023-07-24T08:37:11;7.13;;;4.03;;
14736;SDS011;7459;53.590;10.062;2023-07-24T08:39:37;10.32;;;4.32;;
14736;SDS011;7459;53.590;10.062;2023-07-24T08:42:12;8.48;;;4.00;;
14736;SDS011;7459;53.590;10.062;2023-07-24T08:44:38;9.05;;;4.47;;
14736;SDS011;7459;53.590;10.062;2023-07-24T08:47:06;7.17;;;3.90;;
14736;SDS011;7459;53.590;10.062;2023-07-24T08:49:36;9.75;;;4.68;;
14736;SDS011;7459;53.590;10.062;2023-07-24T08:52:05;7.82;;;4.60;;
14736;SDS011;7459;53.590;10.062;2023-07-24T08:54:31;9.30;;;5.05;;
14736;SDS011;7459;53.590;10.062;2023-07-24T08:57:01;9.13;;;5.30;;
14736;SDS011;7459;53.590;10.062;2023-07-24T08:59:27;7.47;;;4.40;;
14736;SDS011;7459;53.590;10.062;2023-07-24T09:01:54;8.30;;;4.95;;
14736;SDS011;7459;53.590;10.062;2023-07-24T09:04:20;7.43;;;4.65;;
14736;SDS011;7459;53.590;10.062;2023-07-24T09:06:46;8.68;;;5.07;;
14736;SDS011;7459;53.590;10.062;2023-07-24T09:09:13;9.60;;;5.63;;
14736;SDS011;7459;53.590;10.062;2023-07-24T09:11:46;10.55;;;5.07;;
14736;SDS011;7459;53.590;10.062;2023-07-24T09:14:20;8.73;;;4.65;;
14736;SDS011;7459;53.590;10.062;2023-07-24T09:16:47;8.32;;;4.68;;
14736;SDS011;7459;53.590;10.062;2023-07-24T09:19:16;9.57;;;5.33;;
14736;SDS011;7459;53.590;10.062;2023-07-24T09:21:43;8.25;;;5.28;;
14736;SDS011;7459;53.590;10.062;2023-07-24T09:24:13;10.38;;;6.20;;
14736;SDS011;7459;53.590;10.062;2023-07-24T09:26:46;7.97;;;4.50;;
14736;SDS011;7459;53.590;10.062;2023-07-24T09:29:13;10.23;;;4.88;;
14736;SDS011;7459;53.590;10.062;2023-07-24T09:31:39;9.95;;;4.38;;
14736;SDS011;7459;53.590;10.062;2023-07-24T09:34:13;8.13;;;4.13;;
14736;SDS011;7459;53.590;10.062;2023-07-24T09:36:40;7.65;;;4.28;;
14736;SDS011;7459;53.590;10.062;2023-07-24T09:39:06;7.95;;;4.22;;
14736;SDS011;7459;53.590;10.062;2023-07-24T09:41:35;8.48;;;4.70;;
14736;SDS011;7459;53.590;10.062;2023-07-24T09:44:01;8.20;;;4.70;;
14736;SDS011;7459;53.590;10.062;2023-07-24T09:46:27;8.90;;;5.47;;
14736;SDS011;7459;53.590;10.062;2023-07-24T09:48:55;8.65;;;4.80;;
14736;SDS011;7459;53.590;10.062;2023-07-24T09:51:21;9.60;;;5.47;;
14736;SDS011;7459;53.590;10.062;2023-07-24T09:56:20;10.93;;;5.82;;
14736;SDS011;7459;53.590;10.062;2023-07-24T09:58:49;8.77;;;5.20;;
14736;SDS011;7459;53.590;10.062;2023-07-24T10:01:19;11.05;;;5.20;;
14736;SDS011;7459;53.590;10.062;2023-07-24T10:03:46;8.50;;;4.65;;
14736;SDS011;7459;53.590;10.062;2023-07-24T10:06:14;8.13;;;4.17;;
14736;SDS011;7459;53.590;10.062;2023-07-24T10:08:41;8.77;;;4.90;;
14736;SDS011;7459;53.590;10.062;2023-07-24T10:11:08;6.90;;;4.25;;
14736;SDS011;7459;53.590;10.062;2023-07-24T10:13:37;9.25;;;4.70;;
14736;SDS011;7459;53.590;10.062;2023-07-24T10:16:04;7.60;;;4.30;;
14736;SDS011;7459;53.590;10.062;2023-07-24T10:18:31;9.40;;;4.37;;
14736;SDS011;7459;53.590;10.062;2023-07-24T10:21:07;9.60;;;3.95;;
14736;SDS011;7459;53.590;10.062;2023-07-24T10:23:35;9.00;;;4.47;;
14736;SDS011;7459;53.590;10.062;2023-07-24T10:26:03;8.45;;;4.47;;
14736;SDS011;7459;53.590;10.062;2023-07-24T10:28:35;8.43;;;4.15;;
14736;SDS011;7459;53.590;10.062;2023-07-24T10:31:03;7.60;;;3.93;;
14736;SDS011;7459;53.590;10.062;2023-07-24T10:33:34;8.40;;;4.60;;
14736;SDS011;7459;53.590;10.062;2023-07-24T10:36:06;7.38;;;3.95;;
14736;SDS011;7459;53.590;10.062;2023-07-24T10:38:41;8.85;;;4.63;;
14736;SDS011;7459;53.590;10.062;2023-07-24T10:41:08;8.38;;;3.88;;
14736;SDS011;7459;53.590;10.062;2023-07-24T10:43:45;7.53;;;4.50;;
14736;SDS011;7459;53.590;10.062;2023-07-24T10:46:17;8.75;;;4.55;;
14736;SDS011;7459;53.590;10.062;2023-07-24T10:48:44;9.60;;;4.43;;
14736;SDS011;7459;53.590;10.062;2023-07-24T10:51:12;7.30;;;3.78;;
14736;SDS011;7459;53.590;10.062;2023-07-24T10:53:43;9.32;;;4.18;;
14736;SDS011;7459;53.590;10.062;2023-07-24T10:56:13;9.43;;;4.57;;
14736;SDS011;7459;53.590;10.062;2023-07-24T10:58:40;7.90;;;4.40;;
14736;SDS011;7459;53.590;10.062;2023-07-24T11:01:07;7.13;;;3.65;;
14736;SDS011;7459;53.590;10.062;2023-07-24T11:03:37;6.40;;;3.40;;
14736;SDS011;7459;53.590;10.062;2023-07-24T11:06:10;8.07;;;4.37;;
14736;SDS011;7459;53.590;10.062;2023-07-24T11:08:56;9.07;;;3.92;;
14736;SDS011;7459;53.590;10.062;2023-07-24T11:11:33;7.80;;;3.70;;
14736;SDS011;7459;53.590;10.062;2023-07-24T11:14:01;6.88;;;3.90;;
14736;SDS011;7459;53.590;10.062;2023-07-24T11:16:27;7.28;;;3.72;;
14736;SDS011;7459;53.590;10.062;2023-07-24T11:18:56;8.07;;;4.00;;
14736;SDS011;7459;53.590;10.062;2023-07-24T11:21:24;7.25;;;3.13;;
14736;SDS011;7459;53.590;10.062;2023-07-24T11:23:51;7.18;;;3.92;;
14736;SDS011;7459;53.590;10.062;2023-07-24T11:26:22;8.00;;;4.15;;
14736;SDS011;7459;53.590;10.062;2023-07-24T11:28:50;7.43;;;3.50;;
14736;SDS011;7459;53.590;10.062;2023-07-24T11:31:18;7.13;;;3.00;;
14736;SDS011;7459;53.590;10.062;2023-07-24T11:33:49;7.35;;;3.80;;
14736;SDS011;7459;53.590;10.062;2023-07-24T11:36:17;6.65;;;3.13;;
14736;SDS011;7459;53.590;10.062;2023-07-24T11:38:46;7.30;;;3.75;;
14736;SDS011;7459;53.590;10.062;2023-07-24T11:41:13;7.00;;;3.33;;
14736;SDS011;7459;53.590;10.062;2023-07-24T11:43:47;10.00;;;3.50;;
14736;SDS011;7459;53.590;10.062;2023-07-24T11:46:24;9.32;;;3.95;;
14736;SDS011;7459;53.590;10.062;2023-07-24T11:48:53;9.32;;;3.78;;
14736;SDS011;7459;53.590;10.062;2023-07-24T11:51:21;6.65;;;3.35;;
14736;SDS011;7459;53.590;10.062;2023-07-24T11:53:49;7.13;;;3.90;;
14736;SDS011;7459;53.590;10.062;2023-07-24T11:56:19;7.82;;;3.85;;
14736;SDS011;7459;53.590;10.062;2023-07-24T11:58:46;7.05;;;3.60;;
14736;SDS011;7459;53.590;10.062;2023-07-24T12:01:12;5.77;;;3.10;;
14736;SDS011;7459;53.590;10.062;2023-07-24T12:03:38;9.30;;;3.80;;
14736;SDS011;7459;53.590;10.062;2023-07-24T12:06:05;7.40;;;3.72;;
14736;SDS011;7459;53.590;10.062;2023-07-24T12:08:39;7.40;;;3.92;;
14736;SDS011;7459;53.590;10.062;2023-07-24T12:11:15;7.27;;;3.60;;
14736;SDS011;7459;53.590;10.062;2023-07-24T12:13:45;6.68;;;3.50;;
14736;SDS011;7459;53.590;10.062;2023-07-24T12:16:10;6.85;;;3.95;;
14736;SDS011;7459;53.590;10.062;2023-07-24T12:18:36;8.50;;;3.97;;
14736;SDS011;7459;53.590;10.062;2023-07-24T12:21:02;8.03;;;4.07;;
14736;SDS011;7459;53.590;10.062;2023-07-24T12:23:27;6.17;;;3.90;;
14736;SDS011;7459;53.590;10.062;2023-07-24T12:25:53;6.68;;;4.00;;
14736;SDS011;7459;53.590;10.062;2023-07-24T12:28:19;7.87;;;4.33;;
14736;SDS011;7459;53.590;10.062;2023-07-24T12:30:45;8.55;;;4.53;;
14736;SDS011;7459;53.590;10.062;2023-07-24T12:33:10;7.63;;;4.50;;
14736;SDS011;7459;53.590;10.062;2023-07-24T12:35:36;8.20;;;4.40;;
14736;SDS011;7459;53.590;10.062;2023-07-24T12:38:02;6.40;;;3.83;;
14736;SDS011;7459;53.590;10.062;2023-07-24T12:40:27;7.18;;;4.05;;
14736;SDS011;7459;53.590;10.062;2023-07-24T12:42:53;6.50;;;3.77;;
14736;SDS011;7459;53.590;10.062;2023-07-24T12:45:19;7.50;;;3.88;;
14736;SDS011;7459;53.590;10.062;2023-07-24T12:47:44;6.27;;;3.90;;
14736;SDS011;7459;53.590;10.062;2023-07-24T12:50:10;7.10;;;4.28;;
14736;SDS011;7459;53.590;10.062;2023-07-24T12:52:36;7.83;;;3.60;;
14736;SDS011;7459;53.590;10.062;2023-07-24T12:55:01;6.63;;;4.15;;
14736;SDS011;7459;53.590;10.062;2023-07-24T12:57:27;7.15;;;3.60;;
14736;SDS011;7459;53.590;10.062;2023-07-24T12:59:53;5.70;;;3.63;;
14736;SDS011;7459;53.590;10.062;2023-07-24T13:02:19;7.35;;;3.92;;
14736;SDS011;7459;53.590;10.062;2023-07-24T13:04:45;7.05;;;4.07;;
14736;SDS011;7459;53.590;10.062;2023-07-24T13:07:11;6.63;;;3.93;;
14736;SDS011;7459;53.590;10.062;2023-07-24T13:09:36;6.15;;;3.67;;
14736;SDS011;7459;53.590;10.062;2023-07-24T13:12:02;6.00;;;3.83;;
14736;SDS011;7459;53.590;10.062;2023-07-24T13:14:28;6.90;;;3.78;;
14736;SDS011;7459;53.590;10.062;2023-07-24T13:16:54;6.72;;;4.25;;
14736;SDS011;7459;53.590;10.062;2023-07-24T13:19:20;7.10;;;4.23;;
14736;SDS011;7459;53.590;10.062;2023-07-24T13:21:47;6.82;;;4.38;;
14736;SDS011;7459;53.590;10.062;2023-07-24T13:24:13;6.47;;;4.50;;
14736;SDS011;7459;53.590;10.062;2023-07-24T13:26:39;6.55;;;4.13;;
14736;SDS011;7459;53.590;10.062;2023-07-24T13:29:05;6.50;;;3.92;;
14736;SDS011;7459;53.590;10.062;2023-07-24T13:31:31;6.57;;;3.70;;
14736;SDS011;7459;53.590;10.062;2023-07-24T13:33:57;6.07;;;4.00;;
14736;SDS011;7459;53.590;10.062;2023-07-24T13:36:22;5.90;;;3.30;;
14736;SDS011;7459;53.590;10.062;2023-07-24T13:38:48;5.80;;;3.30;;
14736;SDS011;7459;53.590;10.062;2023-07-24T13:41:15;5.68;;;3.10;;
14736;SDS011;7459;53.590;10.062;2023-07-24T13:43:41;5.80;;;3.33;;
14736;SDS011;7459;53.590;10.062;2023-07-24T13:46:07;6.27;;;2.90;;
14736;SDS011;7459;53.590;10.062;2023-07-24T13:48:33;7.70;;;3.40;;
14736;SDS011;7459;53.590;10.062;2023-07-24T13:50:59;5.63;;;2.92;;
14736;SDS011;7459;53.590;10.062;2023-07-24T13:53:24;7.40;;;3.20;;
14736;SDS011;7459;53.590;10.062;2023-07-24T13:55:50;5.35;;;2.95;;
14736;SDS011;7459;53.590;10.062;2023-07-24T13:58:16;5.93;;;2.90;;
14736;SDS011;7459;53.590;10.062;2023-07-24T14:00:42;6.82;;;3.30;;
14736;SDS011;7459;53.590;10.062;2023-07-24T14:03:07;5.63;;;3.10;;
14736;SDS011;7459;53.590;10.062;2023-07-24T14:05:33;6.32;;;3.22;;
14736;SDS011;7459;53.590;10.062;2023-07-24T14:08:01;5.72;;;2.83;;
14736;SDS011;7459;53.590;10.062;2023-07-24T14:10:27;6.85;;;3.47;;
14736;SDS011;7459;53.590;10.062;2023-07-24T14:12:53;5.73;;;3.43;;
14736;SDS011;7459;53.590;10.062;2023-07-24T14:15:19;6.20;;;3.43;;
14736;SDS011;7459;53.590;10.062;2023-07-24T14:17:45;6.77;;;3.23;;
14736;SDS011;7459;53.590;10.062;2023-07-24T14:20:11;6.05;;;4.20;;
14736;SDS011;7459;53.590;10.062;2023-07-24T14:22:37;6.78;;;3.83;;
14736;SDS011;7459;53.590;10.062;2023-07-24T14:25:02;5.80;;;3.00;;
14736;SDS011;7459;53.590;10.062;2023-07-24T14:27:30;5.80;;;2.95;;
14736;SDS011;7459;53.590;10.062;2023-07-24T14:29:56;6.50;;;3.00;;
14736;SDS011;7459;53.590;10.062;2023-07-24T14:32:22;6.33;;;3.03;;
14736;SDS011;7459;53.590;10.062;2023-07-24T14:34:50;6.95;;;3.10;;
14736;SDS011;7459;53.590;10.062;2023-07-24T14:37:17;7.25;;;3.28;;
14736;SDS011;7459;53.590;10.062;2023-07-24T14:39:43;6.87;;;3.47;;
14736;SDS011;7459;53.590;10.062;2023-07-24T14:42:09;5.95;;;3.22;;
14736;SDS011;7459;53.590;10.062;2023-07-24T14:44:36;6.70;;;3.00;;
14736;SDS011;7459;53.590;10.062;2023-07-24T14:47:01;6.28;;;3.42;;
14736;SDS011;7459;53.590;10.062;2023-07-24T14:49:27;5.30;;;3.13;;
14736;SDS011;7459;53.590;10.062;2023-07-24T14:51:53;5.45;;;3.10;;
14736;SDS011;7459;53.590;10.062;2023-07-24T14:54:19;12.30;;;3.40;;
14736;SDS011;7459;53.590;10.062;2023-07-24T14:56:44;7.05;;;3.67;;